createdAt,value
2018-06-25T00:00:52.571Z,68.81
2018-06-25T00:01:52.525Z,68.23
2018-06-25T00:02:52.503Z,69
2018-06-25T00:03:52.506Z,69
2018-06-25T00:04:52.489Z,68.62
2018-06-25T00:05:52.551Z,69
2018-06-25T00:06:52.500Z,69.2
2018-06-25T00:07:52.485Z,68.13
2018-06-25T00:08:52.539Z,69.1
2018-06-25T00:09:53.069Z,69.1
2018-06-25T00:10:52.576Z,68.52
2018-06-25T00:11:52.549Z,68.71
2018-06-25T00:12:52.540Z,69.1
2018-06-25T00:13:52.532Z,68.62
2018-06-25T00:14:52.531Z,68.91
2018-06-25T00:15:52.560Z,68.91
2018-06-25T00:16:52.517Z,68.23
2018-06-25T00:17:52.547Z,68.62
2018-06-25T00:18:52.556Z,68.13
2018-06-25T00:19:52.565Z,68.87
2018-06-25T00:20:52.570Z,68.87
2018-06-25T00:21:52.522Z,68.87
2018-06-25T00:22:52.530Z,69.26
2018-06-25T00:23:52.561Z,69.07
2018-06-25T00:24:52.520Z,68.97
2018-06-25T00:25:52.574Z,68.97
2018-06-25T00:26:52.588Z,69.45
2018-06-25T00:27:52.570Z,69.84
2018-06-25T00:28:52.598Z,69.39
2018-06-25T00:29:52.522Z,69.16
2018-06-25T00:30:52.580Z,69.16
2018-06-25T00:31:52.588Z,69.45
2018-06-25T00:32:52.571Z,69.45
2018-06-25T00:33:52.620Z,68.71
2018-06-25T00:34:52.537Z,69.29
2018-06-25T00:35:52.647Z,68.97
2018-06-25T00:36:52.573Z,69.45
2018-06-25T00:37:52.559Z,69.58
2018-06-25T00:38:52.556Z,69.1
2018-06-25T00:39:52.573Z,69
2018-06-25T00:40:52.617Z,69.2
2018-06-25T00:41:52.555Z,69.49
2018-06-25T00:42:52.611Z,69.29
2018-06-25T00:43:52.592Z,69
2018-06-25T00:44:52.673Z,69.2
2018-06-25T00:45:52.589Z,69
2018-06-25T00:46:52.581Z,69.1
2018-06-25T00:47:52.577Z,69
2018-06-25T00:48:52.575Z,69.29
2018-06-25T00:49:52.578Z,68.91
2018-06-25T00:50:52.600Z,69
2018-06-25T00:51:52.566Z,69.29
2018-06-25T00:52:52.579Z,69.1
2018-06-25T00:53:52.579Z,69.29
2018-06-25T00:54:52.593Z,68.71
2018-06-25T00:55:52.614Z,68.91
2018-06-25T00:56:52.598Z,68.91
2018-06-25T00:57:52.578Z,69.1
2018-06-25T00:58:52.640Z,68.91
2018-06-25T00:59:52.566Z,69.1
2018-06-25T01:00:52.630Z,68.71
2018-06-25T01:01:52.581Z,69.2
2018-06-25T01:02:52.594Z,69.1
2018-06-25T01:03:52.596Z,69.2
2018-06-25T01:04:52.618Z,69.1
2018-06-25T01:05:52.643Z,68.71
2018-06-25T01:06:52.583Z,69.1
2018-06-25T01:07:52.602Z,68.81
2018-06-25T01:08:52.628Z,69.1
2018-06-25T01:09:52.606Z,68.81
2018-06-25T01:10:52.615Z,69.29
2018-06-25T01:11:52.622Z,69.1
2018-06-25T01:12:52.598Z,69.2
2018-06-25T01:13:52.611Z,69.13
2018-06-25T01:14:52.610Z,69.2
2018-06-25T01:15:52.647Z,69.2
2018-06-25T01:16:52.623Z,69
2018-06-25T01:17:52.631Z,69.1
2018-06-25T01:18:52.644Z,68.91
2018-06-25T01:19:52.620Z,68.84
2018-06-25T01:20:52.650Z,69.29
2018-06-25T01:21:52.638Z,69.2
2018-06-25T01:22:52.610Z,68.94
2018-06-25T01:23:52.629Z,69.23
2018-06-25T01:24:52.657Z,69.1
2018-06-25T01:25:52.735Z,68.91
2018-06-25T01:26:52.641Z,68.91
2018-06-25T01:27:52.646Z,69.49
2018-06-25T01:28:52.677Z,69.29
2018-06-25T01:29:52.635Z,69.49
2018-06-25T01:30:52.651Z,68.62
2018-06-25T01:31:52.710Z,69.49
2018-06-25T01:32:52.676Z,69.58
2018-06-25T01:33:52.640Z,68.91
2018-06-25T01:34:52.643Z,69.2
2018-06-25T01:35:52.645Z,68.91
2018-06-25T01:36:52.639Z,69.49
2018-06-25T01:37:52.671Z,69.1
2018-06-25T01:38:52.643Z,69.29
2018-06-25T01:39:52.648Z,69.49
2018-06-25T01:40:52.732Z,69.29
2018-06-25T01:41:52.664Z,69.1
2018-06-25T01:42:52.696Z,69.29
2018-06-25T01:43:52.649Z,69.39
2018-06-25T01:44:52.715Z,69.78
2018-06-25T01:45:52.701Z,69.52
2018-06-25T01:46:52.690Z,69.9
2018-06-25T01:47:52.732Z,69.52
2018-06-25T01:48:52.683Z,69.62
2018-06-25T01:49:52.721Z,69.42
2018-06-25T01:50:52.729Z,69.52
2018-06-25T01:51:52.765Z,69.71
2018-06-25T01:52:52.712Z,69.71
2018-06-25T01:53:52.714Z,69.9
2018-06-25T01:54:52.681Z,69.9
2018-06-25T01:55:52.726Z,69.62
2018-06-25T01:56:52.684Z,69.71
2018-06-25T01:57:52.757Z,69.42
2018-06-25T01:58:52.695Z,69.62
2018-06-25T01:59:52.715Z,69.52
2018-06-25T02:00:52.766Z,69.9
2018-06-25T02:01:52.699Z,69.71
2018-06-25T02:02:52.724Z,69.42
2018-06-25T02:03:52.730Z,69.62
2018-06-25T02:04:52.738Z,69.62
2018-06-25T02:05:52.740Z,69.42
2018-06-25T02:06:52.719Z,69.71
2018-06-25T02:07:52.716Z,69.62
2018-06-25T02:08:52.733Z,69.81
2018-06-25T02:09:52.716Z,69.52
2018-06-25T02:10:52.755Z,69.52
2018-06-25T02:11:52.761Z,69.52
2018-06-25T02:12:52.765Z,69.81
2018-06-25T02:13:52.740Z,69.52
2018-06-25T02:14:52.755Z,69.52
2018-06-25T02:15:52.730Z,69.81
2018-06-25T02:16:52.741Z,69.71
2018-06-25T02:17:53.077Z,69.52
2018-06-25T02:18:52.750Z,69.71
2018-06-25T02:19:52.757Z,69.9
2018-06-25T02:20:52.819Z,69.32
2018-06-25T02:21:52.770Z,69.42
2018-06-25T02:22:52.781Z,69.42
2018-06-25T02:23:52.736Z,69.81
2018-06-25T02:24:52.766Z,69.32
2018-06-25T02:25:52.747Z,69.62
2018-06-25T02:26:52.755Z,69.42
2018-06-25T02:27:52.736Z,69.32
2018-06-25T02:28:52.767Z,69.71
2018-06-25T02:29:52.774Z,69.81
2018-06-25T02:30:52.759Z,69.71
2018-06-25T02:31:52.761Z,69.71
2018-06-25T02:32:52.832Z,69.71
2018-06-25T02:33:52.805Z,69.62
2018-06-25T02:34:52.779Z,69.62
2018-06-25T02:35:53.657Z,69.9
2018-06-25T02:36:52.787Z,69.81
2018-06-25T02:37:52.805Z,69.52
2018-06-25T02:38:52.815Z,69.9
2018-06-25T02:39:52.764Z,69.9
2018-06-25T02:40:52.798Z,69.71
2018-06-25T02:41:52.786Z,69.71
2018-06-25T02:42:52.783Z,69.81
2018-06-25T02:43:52.760Z,69.81
2018-06-25T02:44:52.768Z,69.52
2018-06-25T02:45:52.805Z,69.62
2018-06-25T02:46:52.782Z,69.9
2018-06-25T02:47:53.175Z,69.81
2018-06-25T02:48:52.764Z,69.71
2018-06-25T02:49:52.784Z,69.62
2018-06-25T02:50:52.841Z,69.71
2018-06-25T02:52:57.476Z,69.62
2018-06-25T02:53:08.900Z,69.71
2018-06-25T02:54:08.857Z,69.71
2018-06-25T02:55:08.894Z,69.62
2018-06-25T02:56:08.895Z,70.39
2018-06-25T02:57:08.879Z,70
2018-06-25T02:58:08.902Z,69.81
2018-06-25T02:59:09.339Z,69.81
2018-06-25T03:00:08.887Z,69.81
2018-06-25T03:01:08.909Z,69.81
2018-06-25T03:02:08.910Z,69.81
2018-06-25T03:03:08.917Z,70
2018-06-25T03:04:08.926Z,69.62
2018-06-25T03:05:08.869Z,69.62
2018-06-25T03:06:08.903Z,69.71
2018-06-25T03:07:08.892Z,69.13
2018-06-25T03:08:08.925Z,68.94
2018-06-25T03:09:08.934Z,69.32
2018-06-25T03:10:08.928Z,69.04
2018-06-25T03:11:08.905Z,69.52
2018-06-25T03:12:08.899Z,69.62
2018-06-25T03:13:08.963Z,69.62
2018-06-25T03:14:08.913Z,69.52
2018-06-25T03:15:08.940Z,69.29
2018-06-25T03:16:08.939Z,69.49
2018-06-25T03:17:08.932Z,69.42
2018-06-25T03:18:09.594Z,69.29
2018-06-25T03:20:09.737Z,69.39
2018-06-25T03:21:08.958Z,70.36
2018-06-25T03:22:08.905Z,70.16
2018-06-25T03:23:08.964Z,69.23
2018-06-25T03:24:08.941Z,70.36
2018-06-25T03:25:08.913Z,70.36
2018-06-25T03:26:08.942Z,70.68
2018-06-25T03:27:08.919Z,70.36
2018-06-25T03:28:09.353Z,70.2
2018-06-25T03:29:08.976Z,70.2
2018-06-25T03:30:08.930Z,70.36
2018-06-25T03:31:08.933Z,70.1
2018-06-25T03:32:08.956Z,70.54
2018-06-25T03:33:08.947Z,70.16
2018-06-25T03:34:08.932Z,70.64
2018-06-25T03:35:08.935Z,70.74
2018-06-25T03:36:08.981Z,70.68
2018-06-25T03:37:08.954Z,70.29
2018-06-25T03:38:08.932Z,71.06
2018-06-25T03:39:08.961Z,70.39
2018-06-25T03:40:09.757Z,70.87
2018-06-25T03:41:08.977Z,70.97
2018-06-25T03:42:14.982Z,71.06
2018-06-25T03:43:09.197Z,70.78
2018-06-25T03:44:09.227Z,70.29
2018-06-25T03:45:09.850Z,70.2
2018-06-25T03:46:09.145Z,70.48
2018-06-25T03:47:08.966Z,70.87
2018-06-25T03:48:09.073Z,70.87
2018-06-25T03:49:09.047Z,70.78
2018-06-25T03:50:08.960Z,70.29
2018-06-25T03:51:08.968Z,70.48
2018-06-25T03:52:08.971Z,70.58
2018-06-25T03:53:08.990Z,70.58
2018-06-25T03:54:08.962Z,70.29
2018-06-25T03:55:09.046Z,70.29
2018-06-25T03:56:08.990Z,70.2
2018-06-25T03:57:09.040Z,70.78
2018-06-25T03:58:08.989Z,70.87
2018-06-25T03:59:09.025Z,70.48
2018-06-25T04:00:08.997Z,70.87
2018-06-25T04:01:09.129Z,70.97
2018-06-25T04:02:09.015Z,70.78
2018-06-25T04:03:09.000Z,70.58
2018-06-25T04:04:09.010Z,71.06
2018-06-25T04:05:09.029Z,71.06
2018-06-25T04:06:08.999Z,70.68
2018-06-25T04:07:09.003Z,70.68
2018-06-25T04:08:09.031Z,70.78
2018-06-25T04:09:09.041Z,70.58
2018-06-25T04:10:09.001Z,70.78
2018-06-25T04:11:08.994Z,70.58
2018-06-25T04:12:09.070Z,70.97
2018-06-25T04:13:09.039Z,70.29
2018-06-25T04:14:09.076Z,70.29
2018-06-25T04:15:08.997Z,70.64
2018-06-25T04:16:09.036Z,70.87
2018-06-25T04:17:09.008Z,70.78
2018-06-25T04:18:09.012Z,70.68
2018-06-25T04:19:09.026Z,70.68
2018-06-25T04:20:09.007Z,70.87
2018-06-25T04:21:09.034Z,70.68
2018-06-25T04:22:09.020Z,70.58
2018-06-25T04:23:09.056Z,70.87
2018-06-25T04:24:09.013Z,70.68
2018-06-25T04:25:09.035Z,70.87
2018-06-25T04:26:09.130Z,70.58
2018-06-25T04:27:09.045Z,70.58
2018-06-25T04:28:09.077Z,70.78
2018-06-25T04:29:09.016Z,70.48
2018-06-25T04:30:09.059Z,70.78
2018-06-25T04:31:09.052Z,70.78
2018-06-25T04:32:09.035Z,70.78
2018-06-25T04:33:09.097Z,70.97
2018-06-25T04:34:09.040Z,70.2
2018-06-25T04:35:09.078Z,70.54
2018-06-25T04:36:09.056Z,70.54
2018-06-25T04:37:09.058Z,71.64
2018-06-25T04:38:09.103Z,71.7
2018-06-25T04:39:09.054Z,72.09
2018-06-25T04:40:09.111Z,71.7
2018-06-25T04:41:09.061Z,71.84
2018-06-25T04:42:09.049Z,71.64
2018-06-25T04:43:09.206Z,70.45
2018-06-25T04:44:09.054Z,71.12
2018-06-25T04:45:09.061Z,71.03
2018-06-25T04:46:09.047Z,71.64
2018-06-25T04:47:09.100Z,71.16
2018-06-25T04:48:09.751Z,71.61
2018-06-25T04:49:09.072Z,71.64
2018-06-25T04:50:09.107Z,71.94
2018-06-25T04:51:09.086Z,72.03
2018-06-25T04:52:09.054Z,72.71
2018-06-25T04:53:09.112Z,72.13
2018-06-25T04:54:09.069Z,72.03
2018-06-25T04:55:09.082Z,72.13
2018-06-25T04:56:09.112Z,72.13
2018-06-25T04:57:09.064Z,71.45
2018-06-25T04:58:09.111Z,71.06
2018-06-25T04:59:09.158Z,71.45
2018-06-25T05:00:09.082Z,71.84
2018-06-25T05:01:09.155Z,71.84
2018-06-25T05:02:09.132Z,71.26
2018-06-25T05:03:09.089Z,71.74
2018-06-25T05:04:09.469Z,71.55
2018-06-25T05:05:09.115Z,71.16
2018-06-25T05:06:09.109Z,71.16
2018-06-25T05:07:09.131Z,71.26
2018-06-25T05:08:09.176Z,71.26
2018-06-25T05:09:09.104Z,70.87
2018-06-25T05:10:09.159Z,71.06
2018-06-25T05:11:09.130Z,70.87
2018-06-25T05:12:09.142Z,70.68
2018-06-25T05:13:09.151Z,70.48
2018-06-25T05:14:09.131Z,70.68
2018-06-25T05:15:09.118Z,70.68
2018-06-25T05:16:09.171Z,70.78
2018-06-25T05:17:09.193Z,70.87
2018-06-25T05:18:09.622Z,71.16
2018-06-25T05:19:09.144Z,71.06
2018-06-25T05:20:10.579Z,70.39
2018-06-25T05:21:09.687Z,70.68
2018-06-25T05:22:09.153Z,70.87
2018-06-25T05:23:09.176Z,70.68
2018-06-25T05:24:09.154Z,70.58
2018-06-25T05:25:09.153Z,70.39
2018-06-25T05:26:09.274Z,70.39
2018-06-25T05:27:09.291Z,70.58
2018-06-25T05:28:09.962Z,70.39
2018-06-25T05:29:09.226Z,70.39
2018-06-25T05:30:09.153Z,70.1
2018-06-25T05:31:09.133Z,70.58
2018-06-25T05:32:09.220Z,70
2018-06-25T05:33:09.170Z,70.39
2018-06-25T05:34:09.562Z,70.48
2018-06-25T05:35:09.137Z,70.16
2018-06-25T05:36:09.176Z,70.2
2018-06-25T05:37:09.153Z,69.71
2018-06-25T05:38:09.259Z,70.36
2018-06-25T05:39:09.193Z,70.26
2018-06-25T05:40:09.149Z,70.36
2018-06-25T05:41:09.145Z,70.36
2018-06-25T05:42:09.183Z,70.06
2018-06-25T05:43:09.215Z,70
2018-06-25T05:44:09.223Z,70.16
2018-06-25T05:45:09.202Z,69.78
2018-06-25T05:46:09.188Z,70.06
2018-06-25T05:47:09.168Z,70.06
2018-06-25T05:48:09.251Z,69.39
2018-06-25T05:55:36.647Z,69.2
2018-06-25T05:55:48.055Z,70.36
2018-06-25T05:56:48.054Z,69.97
2018-06-25T05:57:48.047Z,70.16
2018-06-25T05:58:48.026Z,69.68
2018-06-25T05:59:48.081Z,69.78
2018-06-25T06:00:48.040Z,70.36
2018-06-25T06:01:48.041Z,70.36
2018-06-25T06:02:48.046Z,69.29
2018-06-25T06:03:48.080Z,69.39
2018-06-25T06:04:48.079Z,70.26
2018-06-25T06:05:48.087Z,69.58
2018-06-25T06:06:48.069Z,70.06
2018-06-25T06:07:48.079Z,70.36
2018-06-25T06:08:48.121Z,70.32
2018-06-25T06:09:48.195Z,70.22
2018-06-25T06:10:48.081Z,69.45
2018-06-25T06:11:48.119Z,69.64
2018-06-25T06:12:48.087Z,70.03
2018-06-25T06:13:48.124Z,70.22
2018-06-25T06:14:48.146Z,70.13
2018-06-25T06:15:48.089Z,70.22
2018-06-25T06:16:48.065Z,69.74
2018-06-25T06:17:48.116Z,69.39
2018-06-25T06:18:48.073Z,70.13
2018-06-25T06:19:48.123Z,70.22
2018-06-25T06:20:48.063Z,70.22
2018-06-25T06:21:48.098Z,70.03
2018-06-25T06:22:48.072Z,69.35
2018-06-25T06:23:48.082Z,69.68
2018-06-25T06:24:48.107Z,69.45
2018-06-25T06:25:48.093Z,70.22
2018-06-25T06:26:48.083Z,70.42
2018-06-25T06:27:48.133Z,69.74
2018-06-25T06:28:48.091Z,70.13
2018-06-25T06:29:48.092Z,70.13
2018-06-25T06:30:48.093Z,70.32
2018-06-25T06:31:48.128Z,70.22
2018-06-25T06:32:48.098Z,69.84
2018-06-25T06:33:48.131Z,70.03
2018-06-25T06:34:48.209Z,69.55
2018-06-25T06:35:48.140Z,70.32
2018-06-25T06:36:48.113Z,69.74
2018-06-25T06:37:48.124Z,69.84
2018-06-25T06:38:48.123Z,69.35
2018-06-25T06:39:48.197Z,69.45
2018-06-25T06:40:48.109Z,69.93
2018-06-25T06:41:48.123Z,70.03
2018-06-25T06:42:48.103Z,70.13
2018-06-25T06:43:48.730Z,70.22
2018-06-25T06:44:48.118Z,69.45
2018-06-25T06:45:48.128Z,69.71
2018-06-25T06:46:48.125Z,69.74
2018-06-25T06:47:48.135Z,70
2018-06-25T06:48:48.121Z,70.38
2018-06-25T06:49:48.115Z,70.22
2018-06-25T06:50:48.136Z,70.48
2018-06-25T06:51:48.167Z,70.03
2018-06-25T06:52:48.143Z,69.64
2018-06-25T06:53:48.150Z,70.03
2018-06-25T06:54:48.132Z,69.93
2018-06-25T06:55:48.157Z,70.13
2018-06-25T06:56:48.167Z,69.64
2018-06-25T06:57:48.234Z,69.93
2018-06-25T06:58:48.185Z,69.74
2018-06-25T06:59:48.141Z,69.35
2018-06-25T07:00:48.196Z,69.8
2018-06-25T07:01:48.176Z,69.9
2018-06-25T07:02:48.154Z,69.9
2018-06-25T07:03:48.138Z,69.71
2018-06-25T07:04:48.261Z,70.28
2018-06-25T07:05:48.178Z,70.03
2018-06-25T07:06:48.214Z,70.38
2018-06-25T07:07:48.142Z,69.64
2018-06-25T07:08:48.152Z,69.64
2018-06-25T07:09:48.159Z,69.55
2018-06-25T07:10:48.164Z,69.45
2018-06-25T07:11:48.173Z,69.45
2018-06-25T07:12:48.173Z,69.84
2018-06-25T07:13:48.173Z,69.35
2018-06-25T07:14:48.208Z,69.35
2018-06-25T07:15:48.175Z,69.35
2018-06-25T07:16:48.191Z,69.45
2018-06-25T07:17:48.172Z,69.26
2018-06-25T07:18:48.219Z,69.45
2018-06-25T07:19:48.218Z,69.26
2018-06-25T07:20:48.252Z,69.35
2018-06-25T07:21:48.212Z,69.35
2018-06-25T07:22:48.162Z,69.55
2018-06-25T07:23:48.191Z,69.64
2018-06-25T07:24:48.235Z,69.74
2018-06-25T07:25:49.203Z,69.55
2018-06-25T07:26:48.222Z,69.26
2018-06-25T07:27:48.217Z,69.26
2018-06-25T07:28:48.281Z,69.26
2018-06-25T07:29:48.604Z,68.97
2018-06-25T07:30:48.197Z,69.45
2018-06-25T07:31:48.187Z,69.45
2018-06-25T07:32:48.229Z,69.84
2018-06-25T07:33:48.254Z,69.84
2018-06-25T07:34:48.181Z,69.93
2018-06-25T07:35:48.223Z,69.26
2018-06-25T07:36:48.205Z,69.45
2018-06-25T07:37:48.267Z,68.97
2018-06-25T07:38:48.274Z,68.77
2018-06-25T07:39:48.241Z,69.26
2018-06-25T07:40:48.248Z,69.45
2018-06-25T07:41:48.267Z,69.16
2018-06-25T07:42:48.236Z,68.87
2018-06-25T07:44:52.912Z,69.35
2018-06-25T07:45:04.352Z,69.26
2018-06-25T07:46:04.330Z,69.45
2018-06-25T07:47:04.386Z,69.45
2018-06-25T07:48:04.320Z,69.35
2018-06-25T07:49:04.309Z,69.26
2018-06-25T07:50:04.336Z,68.97
2018-06-25T07:51:04.341Z,69.26
2018-06-25T07:52:04.305Z,69.93
2018-06-25T07:53:04.332Z,69.51
2018-06-25T07:54:04.333Z,69.45
2018-06-25T07:55:04.394Z,69.64
2018-06-25T07:56:04.326Z,69.74
2018-06-25T07:57:04.327Z,69.26
2018-06-25T07:58:04.310Z,69.26
2018-06-25T07:59:04.344Z,69.26
2018-06-25T08:00:04.352Z,69.26
2018-06-25T08:01:04.385Z,69.26
2018-06-25T08:02:04.319Z,68.97
2018-06-25T08:03:04.343Z,69.45
2018-06-25T08:04:04.323Z,69.07
2018-06-25T08:05:04.695Z,69.35
2018-06-25T08:06:04.360Z,68.87
2018-06-25T08:07:04.369Z,69.35
2018-06-25T08:08:04.414Z,69.45
2018-06-25T08:09:04.337Z,69.26
2018-06-25T08:10:04.419Z,68.97
2018-06-25T08:11:04.390Z,69.16
2018-06-25T08:12:04.416Z,69.35
2018-06-25T08:13:04.358Z,69.45
2018-06-25T08:14:04.393Z,69.26
2018-06-25T08:15:04.379Z,68.97
2018-06-25T08:16:04.383Z,68.87
2018-06-25T08:17:04.361Z,69.26
2018-06-25T08:18:04.369Z,69.32
2018-06-25T08:19:04.351Z,68.87
2018-06-25T08:20:04.429Z,68.77
2018-06-25T08:21:04.447Z,68.93
2018-06-25T08:22:04.390Z,69.23
2018-06-25T08:23:04.399Z,69.42
2018-06-25T08:24:04.384Z,68.93
2018-06-25T08:25:04.420Z,68.84
2018-06-25T08:26:04.370Z,68.84
2018-06-25T08:27:04.403Z,69.45
2018-06-25T08:28:04.380Z,69.26
2018-06-25T08:29:04.427Z,68.97
2018-06-25T08:30:04.523Z,69.16
2018-06-25T08:31:04.381Z,68.97
2018-06-25T08:32:04.408Z,68.97
2018-06-25T08:33:04.418Z,68.97
2018-06-25T08:34:04.526Z,68.93
2018-06-25T08:35:04.793Z,68.97
2018-06-25T08:36:04.407Z,68.97
2018-06-25T08:37:04.520Z,68.87
2018-06-25T08:38:04.420Z,68.97
2018-06-25T08:39:04.424Z,69.07
2018-06-25T08:40:04.511Z,69.26
2018-06-25T08:41:04.417Z,68.97
2018-06-25T08:42:04.431Z,69.07
2018-06-25T08:43:04.433Z,68.68
2018-06-25T08:44:04.402Z,68.87
2018-06-25T08:45:04.394Z,68.97
2018-06-25T08:46:04.428Z,68.97
2018-06-25T08:47:04.463Z,68.77
2018-06-25T08:48:04.430Z,68.87
2018-06-25T08:49:04.459Z,69.07
2018-06-25T08:50:04.447Z,68.68
2018-06-25T08:51:04.475Z,68.97
2018-06-25T08:52:04.583Z,68.97
2018-06-25T08:53:04.467Z,68.68
2018-06-25T08:54:04.419Z,68.68
2018-06-25T08:55:04.452Z,68.97
2018-06-25T08:56:04.494Z,69.07
2018-06-25T08:57:04.445Z,68.77
2018-06-25T08:58:04.476Z,68.39
2018-06-25T08:59:05.091Z,68.59
2018-06-25T09:00:04.433Z,68.87
2018-06-25T09:01:04.415Z,68.97
2018-06-25T09:02:04.446Z,69.07
2018-06-25T09:03:04.489Z,68.68
2018-06-25T09:04:04.442Z,68.68
2018-06-25T09:05:04.820Z,68.59
2018-06-25T09:06:04.426Z,68.68
2018-06-25T09:07:04.505Z,68.68
2018-06-25T09:08:04.468Z,68.01
2018-06-25T09:09:04.520Z,68.29
2018-06-25T09:10:04.631Z,68.39
2018-06-25T09:11:04.478Z,68.39
2018-06-25T09:12:04.464Z,68.1
2018-06-25T09:13:04.495Z,68.01
2018-06-25T09:14:04.508Z,68.55
2018-06-25T09:15:04.492Z,68.59
2018-06-25T09:16:04.497Z,68.35
2018-06-25T09:17:04.452Z,68.65
2018-06-25T09:18:04.534Z,68.84
2018-06-25T09:19:04.463Z,68.74
2018-06-25T09:20:04.521Z,69.13
2018-06-25T09:21:04.496Z,68.74
2018-06-25T09:22:04.610Z,68.93
2018-06-25T09:23:04.533Z,69.03
2018-06-25T09:24:04.488Z,69.07
2018-06-25T09:25:04.497Z,68.74
2018-06-25T09:26:04.501Z,68.59
2018-06-25T09:27:04.541Z,68.74
2018-06-25T09:28:04.517Z,68.1
2018-06-25T09:29:04.468Z,68.35
2018-06-25T09:30:04.613Z,68.77
2018-06-25T09:31:04.502Z,68.29
2018-06-25T09:32:04.554Z,68.07
2018-06-25T09:33:04.533Z,68.74
2018-06-25T09:34:04.523Z,68.93
2018-06-25T09:35:04.511Z,68.59
2018-06-25T09:36:04.549Z,68.39
2018-06-25T09:37:04.499Z,68.49
2018-06-25T09:38:04.500Z,68.87
2018-06-25T09:39:04.537Z,68.87
2018-06-25T09:40:04.596Z,68.77
2018-06-25T09:41:04.584Z,68.68
2018-06-25T09:42:04.501Z,68.59
2018-06-25T09:43:04.547Z,68.68
2018-06-25T09:44:04.486Z,68.77
2018-06-25T09:45:04.554Z,68.55
2018-06-25T09:46:04.606Z,68.84
2018-06-25T09:47:04.693Z,68.93
2018-06-25T09:48:04.523Z,69.13
2018-06-25T09:49:04.591Z,68.35
2018-06-25T09:50:04.641Z,69.03
2018-06-25T09:51:04.537Z,69.07
2018-06-25T09:52:04.538Z,68.35
2018-06-25T09:53:04.548Z,67.68
2018-06-25T09:54:04.629Z,67.78
2018-06-25T09:55:04.628Z,67.78
2018-06-25T09:56:04.590Z,67.78
2018-06-25T09:57:04.565Z,67.88
2018-06-25T09:58:04.588Z,68.16
2018-06-25T09:59:04.576Z,67.88
2018-06-25T10:00:04.622Z,67.2
2018-06-25T10:01:04.607Z,68.07
2018-06-25T10:02:04.585Z,68.26
2018-06-25T10:03:04.591Z,67.97
2018-06-25T10:04:04.571Z,67.88
2018-06-25T10:05:04.577Z,68.16
2018-06-25T10:06:04.613Z,67.97
2018-06-25T10:07:04.569Z,67.58
2018-06-25T10:08:04.599Z,67.49
2018-06-25T10:09:04.553Z,67.3
2018-06-25T10:10:04.660Z,67.1
2018-06-25T10:11:04.542Z,66.62
2018-06-25T10:12:04.575Z,67.4
2018-06-25T10:13:04.552Z,67.78
2018-06-25T10:14:04.618Z,67.68
2018-06-25T10:15:04.544Z,67.88
2018-06-25T10:16:04.582Z,67.91
2018-06-25T10:17:04.592Z,67.91
2018-06-25T10:18:04.563Z,68.01
2018-06-25T10:19:04.592Z,67.62
2018-06-25T10:20:04.595Z,67.52
2018-06-25T10:21:04.587Z,67.62
2018-06-25T10:22:04.586Z,67.43
2018-06-25T10:23:04.593Z,67.81
2018-06-25T10:24:04.568Z,67.71
2018-06-25T10:25:04.584Z,67.91
2018-06-25T10:26:04.592Z,67.43
2018-06-25T10:27:04.601Z,67.23
2018-06-25T10:28:04.627Z,67.23
2018-06-25T10:29:04.654Z,67.52
2018-06-25T10:30:04.664Z,67.43
2018-06-25T10:31:04.671Z,67.52
2018-06-25T10:32:04.659Z,67.23
2018-06-25T10:33:04.671Z,66.94
2018-06-25T10:34:04.616Z,67.23
2018-06-25T10:35:04.598Z,67.14
2018-06-25T10:36:04.599Z,67.36
2018-06-25T10:37:04.588Z,67.14
2018-06-25T10:38:04.614Z,67.23
2018-06-25T10:39:04.628Z,67.36
2018-06-25T10:40:04.604Z,67.43
2018-06-25T10:41:04.632Z,67.36
2018-06-25T10:42:04.762Z,67.46
2018-06-25T10:43:04.617Z,67.55
2018-06-25T10:44:04.611Z,67.27
2018-06-25T10:45:04.617Z,66.85
2018-06-25T10:46:04.654Z,67.23
2018-06-25T10:51:22.187Z,67.17
2018-06-25T10:51:33.629Z,67.17
2018-06-25T10:52:33.613Z,66.46
2018-06-25T10:53:33.614Z,66.75
2018-06-25T10:54:33.576Z,66.78
2018-06-25T10:55:33.675Z,66.75
2018-06-25T10:56:33.592Z,66.66
2018-06-25T10:57:33.662Z,66.94
2018-06-25T10:58:33.626Z,66.85
2018-06-25T10:59:33.833Z,66.78
2018-06-25T11:00:33.637Z,66.78
2018-06-25T11:01:33.651Z,66.88
2018-06-25T11:06:51.030Z,67.36
2018-06-25T11:07:03.990Z,67.52
2018-06-25T11:08:03.848Z,67.27
2018-06-25T11:09:03.900Z,66.97
2018-06-25T11:10:03.852Z,66.97
2018-06-25T11:11:03.836Z,66.78
2018-06-25T11:12:03.894Z,65.72
2018-06-25T11:13:03.989Z,66.59
2018-06-25T11:14:03.879Z,66.85
2018-06-25T11:15:03.885Z,67.17
2018-06-25T11:16:03.917Z,67.17
2018-06-25T11:17:03.870Z,66.78
2018-06-25T11:18:03.904Z,66.78
2018-06-25T11:19:03.914Z,66.88
2018-06-25T11:20:03.929Z,66.69
2018-06-25T11:21:03.907Z,66.78
2018-06-25T11:22:03.857Z,65.91
2018-06-25T11:23:03.967Z,65.72
2018-06-25T11:24:03.896Z,66.08
2018-06-25T11:25:03.917Z,66.01
2018-06-25T11:26:03.930Z,66.11
2018-06-25T11:27:04.142Z,64.86
2018-06-25T11:28:03.894Z,64.37
2018-06-25T11:29:03.952Z,63.76
2018-06-25T11:30:03.911Z,63.85
2018-06-25T11:31:03.888Z,65.2
2018-06-25T11:32:03.868Z,63.85
2018-06-25T11:33:03.920Z,65.2
2018-06-25T11:34:04.015Z,64.72
2018-06-25T11:35:03.970Z,64.53
2018-06-25T11:36:03.911Z,63.95
2018-06-25T11:37:03.957Z,64.15
2018-06-25T11:41:32.214Z,63.76
2018-06-25T11:42:32.217Z,65.11
2018-06-25T11:43:32.153Z,65.11
2018-06-25T11:44:32.182Z,65.34
2018-06-25T11:45:32.263Z,65.11
2018-06-25T11:46:32.204Z,65.2
2018-06-25T11:47:32.208Z,64.92
2018-06-25T11:48:32.310Z,65.43
2018-06-25T11:49:32.350Z,65.05
2018-06-25T11:50:32.205Z,65.34
2018-06-25T11:51:32.563Z,65.05
2018-06-25T11:52:32.265Z,65.53
2018-06-25T11:53:32.195Z,65.34
2018-06-25T11:54:32.226Z,65.43
2018-06-25T11:55:32.250Z,65.43
2018-06-25T11:56:32.213Z,65.43
2018-06-25T11:57:32.247Z,65.53
2018-06-25T11:58:32.233Z,65.53
2018-06-25T11:59:32.219Z,65.34
2018-06-25T12:00:32.256Z,65.62
2018-06-25T12:01:32.250Z,65.43
2018-06-25T12:02:32.375Z,65.24
2018-06-25T12:03:32.262Z,65.34
2018-06-25T12:04:32.315Z,65.43
2018-06-25T12:05:32.288Z,65.34
2018-06-25T12:06:32.219Z,65.24
2018-06-25T12:07:32.264Z,65.05
2018-06-25T12:08:32.236Z,65.14
2018-06-25T12:09:32.225Z,64.95
2018-06-25T12:11:51.650Z,65.14
2018-06-25T12:12:51.614Z,65.34
2018-06-25T12:13:51.575Z,64.95
2018-06-25T12:14:51.585Z,64.76
2018-06-25T12:15:51.606Z,65.43
2018-06-25T12:16:51.573Z,64.76
2018-06-25T12:17:51.583Z,64.76
2018-06-25T12:18:51.614Z,65.05
2018-06-25T12:19:51.675Z,64.86
2018-06-25T12:20:51.611Z,65.24
2018-06-25T12:21:51.568Z,65.34
2018-06-25T12:26:20.957Z,65.05
2018-06-25T12:27:20.824Z,65.34
2018-06-25T12:28:20.832Z,65.53
2018-06-25T12:29:20.616Z,65.34
2018-06-25T12:30:20.589Z,65.53
2018-06-25T12:31:20.604Z,65.43
2018-06-25T12:32:20.615Z,65.53
2018-06-25T12:33:20.725Z,65.24
2018-06-25T12:34:20.751Z,65.62
2018-06-25T12:35:20.679Z,65.43
2018-06-25T12:36:20.616Z,65.53
2018-06-25T12:37:20.634Z,65.53
2018-06-25T12:38:20.710Z,65.34
2018-06-25T12:39:20.607Z,65.34
2018-06-25T12:40:20.824Z,65.62
2018-06-25T12:41:20.686Z,65.62
2018-06-25T12:42:20.661Z,65.62
2018-06-25T12:43:20.687Z,65.62
2018-06-25T12:44:20.695Z,65.62
2018-06-25T12:45:20.595Z,65.43
2018-06-25T12:46:20.686Z,65.62
2018-06-25T12:47:20.685Z,65.34
2018-06-25T12:48:20.773Z,65.43
2018-06-25T12:49:20.779Z,64.86
2018-06-25T12:50:20.806Z,65.34
2018-06-25T12:51:20.617Z,64.47
2018-06-25T12:52:20.672Z,65.53
2018-06-25T12:53:20.805Z,65.24
2018-06-25T12:54:20.629Z,65.53
2018-06-25T12:55:20.807Z,65.53
2018-06-25T12:56:20.649Z,65.53
2018-06-25T12:57:20.677Z,65.53
2018-06-25T13:01:50.475Z,65.34
2018-06-25T13:02:50.672Z,65.05
2018-06-25T13:03:50.517Z,63.7
2018-06-25T13:04:50.474Z,64.47
2018-06-25T13:05:50.475Z,65.24
2018-06-25T13:06:50.468Z,65.14
2018-06-25T13:07:50.633Z,65.43
2018-06-25T13:08:50.476Z,65.43
2018-06-25T13:09:50.462Z,65.62
2018-06-25T13:10:50.543Z,65.34
2018-06-25T13:11:50.409Z,65.34
2018-06-25T13:12:50.518Z,65.53
2018-06-25T13:13:50.420Z,65.34
2018-06-25T13:14:50.696Z,65.43
2018-06-25T13:15:50.493Z,64.95
2018-06-25T13:16:50.595Z,63.98
2018-06-25T13:17:50.411Z,63.5
2018-06-25T13:18:50.447Z,63.4
2018-06-25T13:19:50.619Z,64.28
2018-06-25T13:20:50.587Z,64.95
2018-06-25T13:21:50.537Z,64.86
2018-06-25T13:22:50.431Z,64.76